Flight Track Log - Related Links

Times and Time Zones

All times are in EDT time to prevent confusion due to time zone crossing. See the N208HF flight status page for this flight to view local times or setup timezone preferences in your user account.

Time Position Orientation Groundspeed Altitude Reporting Facility
EDT Latitude Longitude Course Direction KTS MPH feet Rate Location/Type
Sun 04:24:28 PM 35.2869 -78.7117 356° North 192 221 8,100  Level Washington Center
Sun 04:25:22 PM 35.3350 -78.7161 356° North 188 216 8,100  Level Washington Center
Sun 04:26:18 PM 35.3806 -78.7256 350° North 187 215 8,100  Level Washington Center
Sun 04:27:25 PM 35.4369 -78.7303 356° North 189 217 8,100  Level Washington Center
Sun 04:28:31 PM 35.4972 -78.7378 354° North 191 220 8,100  Level Washington Center
Sun 04:29:26 PM 35.5428 -78.7497 348° North 192 221 8,100  Level Washington Center
Sun 04:30:21 PM 35.5753 -78.7842 319° Northwest 174 200 8,100  Level Washington Center
Sun 04:31:22 PM 35.6139 -78.8214 322° Northwest 169 194 8,100  Level Washington Center
Sun 04:32:22 PM 35.6525 -78.8589 322° Northwest 175 201 8,100  Level Washington Center
Sun 04:33:20 PM 35.6869 -78.8961 319° Northwest 176 203 8,100  Level Washington Center
Sun 04:34:21 PM 35.7294 -78.9389 321° Northwest 177 204 8,100  Level Washington Center
Sun 04:35:28 PM 35.7700 -78.9814 320° Northwest 176 203 8,100  Level Washington Center
Sun 04:36:34 PM 35.8106 -79.0242 319° Northwest 179 206 8,100  Level Washington Center
Sun 04:37:31 PM 35.8450 -79.0589 321° Northwest 177 204 8,100  Level Washington Center
Sun 04:38:26 PM 35.8817 -79.0914 324° Northwest 178 205 8,100  Level Washington Center
Sun 04:39:42 PM 35.9303 -79.1447 318° Northwest 175 201 8,100  Level Washington Center
Sun 04:40:43 PM 35.9667 -79.1822 320° Northwest 171 197 8,100  Level Washington Center
Sun 04:41:34 PM 36.0011 -79.2122 325° Northwest 179 206 8,100  Level Washington Center
Sun 04:42:22 PM 36.0381 -79.2319 337° Northwest 186 214 8,100  Level Washington Center
Sun 04:44:00 PM 36.0881 -79.2939 315° West  Level FlightAware Approximate
Sun 04:51:00 PM 36.3204 -79.5363 321° Northwest  Level FlightAware Approximate
Sun 04:52:00 PM 36.3542 -79.5700 321° Northwest  Level FlightAware Approximate
Sun 04:53:00 PM 36.3879 -79.6038 321° Northwest  Level FlightAware Approximate
Sun 04:54:00 PM 36.4216 -79.6376 321° Northwest  Level FlightAware Approximate
Sun 04:55:00 PM 36.4553 -79.6714 321° Northwest  Level FlightAware Approximate
Sun 04:56:00 PM 36.4891 -79.7052 321° Northwest  Level FlightAware Approximate
Sun 04:57:00 PM 36.5228 -79.7391 321° Northwest  Level FlightAware Approximate
Sun 04:58:00 PM 36.5564 -79.7730 321° Northwest  Level FlightAware Approximate
Sun 04:59:00 PM 36.5914 -79.8049 325° Northwest  Level FlightAware Approximate
Sun 05:00:00 PM 36.6268 -79.8359 325° Northwest  Level FlightAware Approximate
Sun 05:01:00 PM 36.6623 -79.8669 325° Northwest  Level FlightAware Approximate
Sun 05:02:00 PM 36.6977 -79.8980 325° Northwest  Level FlightAware Approximate
Sun 05:03:00 PM 36.7311 -79.9324 320° Northwest  Level FlightAware Approximate
Sun 05:04:00 PM 36.7643 -79.9671 320° Northwest  Level FlightAware Approximate
Sun 05:05:00 PM 36.7975 -80.0018 320° Northwest  Level FlightAware Approximate
Sun 05:06:00 PM 36.8307 -80.0366 320° Northwest  Level FlightAware Approximate
Sun 05:07:00 PM 36.8639 -80.0714 320° Northwest  Level FlightAware Approximate
Sun 05:08:00 PM 36.8971 -80.1062 320° Northwest  Level FlightAware Approximate
Sun 05:09:00 PM 36.9303 -80.1411 320° Northwest  Level FlightAware Approximate
Sun 05:10:00 PM 36.9634 -80.1759 320° Northwest  Level FlightAware Approximate
Sun 05:11:00 PM 36.9966 -80.2109 320° Northwest  Level FlightAware Approximate
Sun 05:11:50 PM 37.1014 -80.3808 320° Northwest 166 191 8,100  Level Washington Center
Sun 05:12:00 PM 37.0297 -80.2458 320° Northwest  Level FlightAware Approximate
Sun 05:12:50 PM 37.1353 -80.4194 318° Northwest 166 191 8,100  Level Washington Center
Sun 05:13:00 PM 37.0629 -80.2808 320° Northwest  Level FlightAware Approximate
Sun 05:13:48 PM 37.1772 -80.4639 320° Northwest 166 191 8,100  Level Washington Center
Sun 05:14:00 PM 37.0960 -80.3158 320° Northwest  Level FlightAware Approximate
Sun 05:14:49 PM 37.2111 -80.5025 318° Northwest 166 191 8,000  Level Washington Center
Sun 05:15:00 PM 37.1291 -80.3508 320° Northwest  Level FlightAware Approximate
Sun 05:15:50 PM 37.2472 -80.5414 319° Northwest 166 191 8,000  Level Washington Center
Sun 05:16:00 PM 37.1622 -80.3859 320° Northwest  Level FlightAware Approximate
Sun 05:16:51 PM 37.2831 -80.5828 317° Northwest 166 191 8,000  Level Washington Center
Sun 05:17:48 PM 37.3150 -80.6164 320° Northwest 166 191 8,000  Level Washington Center
Sun 05:18:49 PM 37.3531 -80.6528 323° Northwest 166 191 8,000  Level Washington Center
Sun 05:19:51 PM 37.3908 -80.6944 319° Northwest 166 191 8,000  Level Washington Center
Sun 05:20:48 PM 37.4247 -80.7333 318° Northwest 166 191 8,000  Level Washington Center
Sun 05:21:49 PM 37.4667 -80.7781 320° Northwest 174 200 8,000  Level Washington Center
Sun 05:22:50 PM 37.5025 -80.8172 319° Northwest 174 200 8,000  Level Washington Center
Sun 05:23:48 PM 37.5403 -80.8592 319° Northwest 174 200 8,000  Level Washington Center
Sun 05:24:49 PM 37.5761 -80.8983 319° Northwest 174 200 8,000  Level Washington Center
Sun 05:25:49 PM 37.6119 -80.9375 319° Northwest 174 200 8,000  Level Washington Center
Sun 05:26:50 PM 37.6436 -80.9711 320° Northwest 174 200 8,000  Level Washington Center
Sun 05:27:48 PM 37.6794 -81.0106 319° Northwest 174 200 8,000  Level Washington Center
Sun 05:28:49 PM 37.7131 -81.0497 317° Northwest 174 200 8,000 49 Level Washington Center
Sun 05:29:50 PM 37.7489 -81.0917 317° Northwest 174 200 8,100 66 Climbing Washington Center
Sun 05:31:00 PM 37.7817 -81.1428 306° West  Level FlightAware Approximate
Sun 05:38:00 PM 37.9642 -81.4629 306° West  Level FlightAware Approximate
Sun 05:39:00 PM 37.9902 -81.5088 306° West  Level FlightAware Approximate
Sun 05:40:00 PM 38.0162 -81.5547 306° West  Level FlightAware Approximate
Sun 05:41:00 PM 38.0421 -81.6006 306° West  Level FlightAware Approximate
Sun 05:42:00 PM 38.0681 -81.6466 306° West  Level FlightAware Approximate
Sun 05:43:00 PM 38.0940 -81.6925 306° West  Level FlightAware Approximate
Sun 05:44:00 PM 38.1199 -81.7386 306° West  Level FlightAware Approximate
Sun 05:45:00 PM 38.1458 -81.7846 306° West  Level FlightAware Approximate
Sun 05:46:00 PM 38.1717 -81.8307 306° West  Level FlightAware Approximate
Sun 05:47:00 PM 38.1976 -81.8768 306° West  Level FlightAware Approximate
Sun 05:48:00 PM 38.2234 -81.9230 305° West  Level FlightAware Approximate
Sun 05:49:00 PM 38.2492 -81.9692 305° West  Level FlightAware Approximate
Sun 05:50:00 PM 38.2751 -82.0154 305° West  Level FlightAware Approximate
Sun 05:51:00 PM 38.3008 -82.0616 305° West  Level FlightAware Approximate
Sun 05:52:00 PM 38.3266 -82.1079 305° West  Level FlightAware Approximate
Sun 05:53:00 PM 38.3523 -82.1543 304° West  Level FlightAware Approximate
Sun 05:54:00 PM 38.3773 -82.2013 304° West  Level FlightAware Approximate
Sun 05:55:00 PM 38.4023 -82.2483 304° West  Level FlightAware Approximate
Sun 05:56:00 PM 38.4273 -82.2954 304° West  Level FlightAware Approximate
Sun 05:57:00 PM 38.4522 -82.3425 304° West  Level FlightAware Approximate
Sun 05:58:00 PM 38.4771 -82.3896 304° West  Level FlightAware Approximate
Sun 05:59:00 PM 38.5021 -82.4367 304° West  Level FlightAware Approximate
Sun 06:00:00 PM 38.5270 -82.4839 304° West  Level FlightAware Approximate
Sun 06:01:00 PM 38.5518 -82.5311 304° West  Level FlightAware Approximate
Sun 06:02:00 PM 38.5767 -82.5784 304° West  Level FlightAware Approximate
Sun 06:02:01 PM 38.5883 -82.5886 306° West 132 152 10,200  Level Indianapolis Center
Sun 06:03:00 PM 38.6015 -82.6257 304° West  Level FlightAware Approximate
Sun 06:03:03 PM 38.6125 -82.6342 304° West 132 152 11,000  Level Indianapolis Center
Sun 06:04:00 PM 38.6264 -82.6730 304° West  Level FlightAware Approximate
Sun 06:04:05 PM 38.6336 -82.6736 304° West 134 154 11,800  Level Indianapolis Center
Sun 06:05:00 PM 38.6512 -82.7204 304° West  Level FlightAware Approximate
Sun 06:05:07 PM 38.6556 -82.7161 303° West 133 153 12,200  Level Indianapolis Center
Sun 06:06:00 PM 38.6764 -82.7673 306° West  Level FlightAware Approximate
Sun 06:06:09 PM 38.6814 -82.7636 305° West 154 177 12,200  Level Indianapolis Center
Sun 06:07:00 PM 38.7025 -82.8135 306° West  Level FlightAware Approximate
Sun 06:07:11 PM 38.7061 -82.8125 303° West 163 188 12,200  Level Indianapolis Center
Sun 06:08:13 PM 38.7331 -82.8625 305° West 168 193 12,200  Level Indianapolis Center
Sun 06:09:15 PM 38.7581 -82.9108 304° West 165 190 12,200  Level Indianapolis Center
Sun 06:10:17 PM 38.7853 -82.9583 306° West 164 189 12,200  Level Indianapolis Center
Sun 06:11:19 PM 38.8100 -83.0047 304° West 160 184 12,200  Level Indianapolis Center
Sun 06:12:21 PM 38.8478 -83.0531 315° West 160 184 12,200  Level Indianapolis Center
Sun 06:13:23 PM 38.8819 -83.0892 321° Northwest 159 183 12,200  Level Indianapolis Center
Sun 06:14:25 PM 38.9133 -83.1278 316° Northwest 157 181 12,200  Level Indianapolis Center
Sun 06:15:27 PM 38.9478 -83.1672 318° Northwest 164 189 12,200  Level Indianapolis Center
Sun 06:16:29 PM 38.9825 -83.2078 318° Northwest 167 192 12,200  Level Indianapolis Center
Sun 06:17:31 PM 39.0172 -83.2469 319° Northwest 165 190 12,200  Level Indianapolis Center
Sun 06:18:33 PM 39.0550 -83.2958 315° West 164 189 12,200 -484 Level Indianapolis Center
Sun 06:19:35 PM 39.0914 -83.3408 316° Northwest 178 205 11,200 -919 Descending Indianapolis Center
Sun 06:20:37 PM 39.1133 -83.3983 296° West 175 201 10,300 -720 Descending Indianapolis Center
Sun 06:21:40 PM 39.1333 -83.4547 295° West 172 198 9,700 -816 Descending Indianapolis Center
Sun 06:22:42 PM 39.1597 -83.5061 304° West 171 197 8,600 -1,326 Descending Indianapolis Center
Sun 06:23:15 PM 39.1789 -83.5436 303° West 179 206 7,600 -1,258 Descending Indianapolis Center
Sun 06:23:44 PM 39.1864 -83.5600 301° West 177 204 7,300 -980 Descending Indianapolis Center
Sun 06:24:04 PM 39.1989 -83.5839 304° West 171 197 6,800 -968 Descending Indianapolis Center
Sun 06:24:46 PM 39.2144 -83.6081 310° West 169 194 6,300 -404 Descending Indianapolis Center
Sun 06:25:48 PM 39.2464 -83.6600 308° West 162 186 6,100 -97 Descending Indianapolis Center
Sun 06:26:50 PM 39.2700 -83.7042 305° West 154 177 6,100 -387 Level Indianapolis Center
Sun 06:27:52 PM 39.3036 -83.7392 321° Northwest 154 177 5,300 -919 Descending Indianapolis Center
Sun 06:28:54 PM 39.3406 -83.7772 321° Northwest 162 186 4,200 -1,016 Descending Indianapolis Center
Sun 06:29:56 PM 39.3678 -83.8156 313° West 154 177 3,200 -484 Descending Indianapolis Center
Sun 06:30:58 PM 39.3947 -83.8492 316° Northwest 143 165 3,200  Level Indianapolis Center
Sun 06:32:00 PM 39.4236 -83.8817 319° Northwest 137 158 3,200  Level Indianapolis Center
Sun 06:33:02 PM 39.4542 -83.9194 316° Northwest 142 163 3,200  Level Indianapolis Center
Sun 06:33:53 PM 39.4850 -83.9569 317° Northwest 149 171 3,200  Level Indianapolis Center
Sun 06:34:54 PM 39.5139 -83.9906 318° Northwest 142 163 3,200  Level Indianapolis Center
Sun 06:35:54 PM 39.5425 -84.0267 316° Northwest 141 162 3,200  Level Indianapolis Center
Sun 06:36:55 PM 39.5733 -84.0603 320° Northwest 145 167 3,200  Level Indianapolis Center
Sun 06:37:10 PM 39.5800 -84.0661 326° Northwest 144 166 3,200  Level Indianapolis Center
Sun 06:37:55 PM 39.6044 -84.0942 319° Northwest 144 166 3,200  Level Indianapolis Center
Sun 06:38:12 PM 39.6106 -84.0989 329° Northwest 142 163 3,200  Level Indianapolis Center
Sun 06:38:56 PM 39.6353 -84.1281 318° Northwest 144 166 3,200  Level Indianapolis Center
Sun 06:39:14 PM 39.6411 -84.1344 320° Northwest 144 166 3,200  Level Indianapolis Center
Sun 06:39:50 PM 39.6622 -84.1586 319° Northwest 145 167 3,200 -194 Level Indianapolis Center
Sun 06:40:16 PM 39.6656 -84.1717 288° West 140 161 3,000 -341 Descending Indianapolis Center
Sun 06:41:18 PM 39.6433 -84.2292 243° Southwest 149 171 2,700 -290 Descending Indianapolis Center

Login

Don't have an account? Register now (free) for customized features, flight alerts, and more!